• Join FlightAware (Why Join?)
  • Login
  • US Flag 
09:45AM EST


 

Airport Tracker/Info


-or-


 

Live Flight TrackerFlight Track Log ✈ N44979 ✈ 23-Jun-2013 ✈ KAAF - KRYY

Flight Track Log - Related Links

Times and Time Zones

All times are in EDT time to prevent confusion due to time zone crossing. See the N44979 flight status page for this flight to view local times or setup timezone preferences in your user account.

Time Position Orientation Groundspeed Altitude Reporting Facility
EDT Latitude Longitude Course Direction KTS MPH feet Rate Location/Type
10:27AM 30.1193 -84.9813 North  Level FlightAware Approximate
10:28AM 30.1770 -84.9758 North  Level Estimated
10:29AM 30.2347 -84.9703 North  Level Estimated
10:30AM 30.2924 -84.9649 North  Level Estimated
10:31AM 30.3502 -84.9594 North  Level Estimated
10:32AM 30.4079 -84.9539 North  Level Estimated
10:33AM 30.4656 -84.9484 North  Level Estimated
10:34AM 30.5233 -84.9429 North  Level Estimated
10:35AM 30.5810 -84.9374 North  Level Estimated
10:36AM 30.6388 -84.9319 North  Level Estimated
10:37AM 30.6965 -84.9263 North  Level Estimated
10:38AM 30.7542 -84.9208 North  Level Estimated
10:39AM 30.8119 -84.9153 North  Level Estimated
10:40AM 30.8696 -84.9097 North  Level Estimated
10:41AM 30.9273 -84.9042 North  Level Estimated
10:42AM 30.9850 -84.8986 North  Level Estimated
10:43AM 31.0427 -84.8931 North  Level Estimated
10:44AM 31.1004 -84.8875 North  Level Estimated
10:45AM 31.1581 -84.8819 North  Level Estimated
10:46AM 31.2159 -84.8763 North  Level Estimated
10:47AM 31.2736 -84.8707 North  Level Estimated
10:48AM 31.3313 -84.8651 North  Level Estimated
10:49AM 31.3890 -84.8595 North  Level Estimated
10:50AM 31.4467 -84.8539 North  Level Estimated
10:51AM 31.5044 -84.8483 North  Level Estimated
10:52AM 31.5621 -84.8427 North  Level Estimated
10:53AM 31.6198 -84.8371 North  Level Estimated
10:54AM 31.6775 -84.8314 North  Level Estimated
10:54AM 30.9192 -84.5925 North 129 148 4,900  Level Jacksonville Center
10:55AM 31.7353 -84.8258 North  Level Estimated
10:55AM 30.9547 -84.5931 359° North 124 143 5,000  Level Jacksonville Center
10:56AM 31.7930 -84.8201 North  Level Estimated
10:56AM 30.9922 -84.5914 North 124 143 4,900  Level Jacksonville Center
10:57AM 31.8507 -84.8145 North  Level Estimated
10:57AM 31.0297 -84.5872 North 124 143 4,900  Level Jacksonville Center
10:58AM 31.9084 -84.8088 North  Level Estimated
10:58AM 31.0653 -84.5831 North 124 143 4,900  Level Jacksonville Center
10:59AM 31.9661 -84.8031 North  Level Estimated
10:59AM 31.1031 -84.5814 North 124 143 4,900  Level Jacksonville Center
11:00AM 31.1386 -84.5794 North 124 143 4,900  Level Jacksonville Center
11:01AM 31.1739 -84.5825 356° North 124 143 4,900  Level Jacksonville Center
11:02AM 31.2136 -84.5833 359° North 124 143 4,900  Level Jacksonville Center
11:03AM 31.2492 -84.5839 359° North 124 143 4,900  Level Jacksonville Center
11:04AM 31.2867 -84.5844 359° North 124 143 4,900  Level Jacksonville Center
11:05AM 31.3222 -84.5875 356° North 124 143 5,000  Climbing Jacksonville Center
11:06AM 31.3578 -84.5858 North 124 143 4,900 -60 Descending Jacksonville Center
11:07AM 31.3953 -84.5867 359° North 124 143 4,900  Level Jacksonville Center
11:08AM 31.4350 -84.5872 359° North 124 143 4,900  Level Jacksonville Center
11:09AM 31.4725 -84.5856 North 124 143 4,900  Level Jacksonville Center
11:10AM 31.5081 -84.5861 359° North 124 143 4,900  Level Jacksonville Center
11:11AM 31.5478 -84.5844 North 124 143 4,900  Level Jacksonville Center
11:12AM 31.5983 -84.5843 North  Level FlightAware Approximate
11:12AM 31.5853 -84.5850 North 124 143 4,900  Level Jacksonville Center
11:13AM 31.6228 -84.5883 356° North 124 143 4,900  Level Jacksonville Center
11:14AM 31.6583 -84.5914 356° North 124 143 4,900  Level Jacksonville Center
11:16AM 31.7500 -84.5833 North 133 153 4,900  Level Atlanta TRACON
11:17AM 31.7833 -84.5833 360° North 133 153 4,900  Level Atlanta TRACON
11:18AM 31.8167 -84.5833 360° North 131 151 4,900  Level Atlanta TRACON
11:19AM 31.8500 -84.6000 337° Northwest 128 147 4,900  Level Atlanta TRACON
11:20AM 31.8833 -84.6167 337° Northwest 131 151 4,900  Level Atlanta TRACON
11:21AM 31.9167 -84.6333 337° Northwest 126 145 4,900  Level Atlanta TRACON
11:22AM 31.9500 -84.6500 337° Northwest 126 145 4,900  Level Atlanta TRACON
11:23AM 31.9667 -84.6667 320° Northwest 123 142 5,000  Climbing Atlanta TRACON
11:24AM 32.0000 -84.7000 320° Northwest 132 152 4,900  Descending Atlanta TRACON
11:25AM 32.0333 -84.7167 337° Northwest 127 146 5,000  Climbing Atlanta TRACON
11:26AM 32.0667 -84.7167 360° North 135 155 4,900 -60 Descending Atlanta TRACON
11:27AM 32.1167 -84.7333 344° North 131 151 4,900  Level Atlanta TRACON
11:28AM 32.1500 -84.7500 337° Northwest 129 148 5,000 360 Climbing Atlanta TRACON
11:29AM 32.1667 -84.7500 360° North 102 117 5,600 540 Climbing Atlanta TRACON
11:30AM 32.2000 -84.7667 337° Northwest 102 117 6,100 480 Climbing Atlanta TRACON
11:31AM 32.2167 -84.7833 320° Northwest 105 121 6,600 360 Climbing Atlanta TRACON
11:32AM 32.2500 -84.8000 337° Northwest 116 133 6,900 180 Climbing Atlanta TRACON
11:33AM 32.2833 -84.8167 337° Northwest 133 153 7,000  Climbing Atlanta TRACON
11:34AM 32.3167 -84.8333 337° Northwest 133 153 7,000 -60 Level Atlanta TRACON
11:35AM 32.3500 -84.8500 337° Northwest 137 158 6,900  Descending Atlanta TRACON
11:36AM 32.3833 -84.8667 337° Northwest 137 158 7,000 60 Climbing Atlanta TRACON
11:37AM 32.4167 -84.8833 337° Northwest 132 152 7,100 -60 Climbing Atlanta TRACON
11:38AM 32.4500 -84.9000 337° Northwest 132 152 6,900 -60 Descending Atlanta TRACON
11:39AM 32.4833 -84.9167 337° Northwest 119 137 7,000 60 Climbing Atlanta TRACON
11:40AM 32.5167 -84.9333 337° Northwest 97 112 7,100  Climbing Atlanta TRACON
11:41AM 32.5167 -84.9333 337° Northwest 126 145 7,100 -60 Level Atlanta TRACON
11:42AM 32.5833 -84.9667 337° Northwest 127 146 7,000 -60 Descending Atlanta TRACON
11:43AM 32.6167 -84.9667 360° North 126 145 7,000 -60 Level Atlanta TRACON
11:44AM 32.6500 -84.9667 360° North 132 152 6,900 -60 Descending Atlanta TRACON
11:45AM 32.7000 -84.9833 344° North 131 151 6,900  Level Atlanta TRACON
11:46AM 32.7333 -84.9833 360° North 129 148 6,900  Level Atlanta TRACON
11:47AM 32.7667 -85.0000 337° Northwest 130 150 6,900  Level Atlanta TRACON
11:48AM 32.8000 -85.0167 337° Northwest 128 147 7,000  Climbing Atlanta TRACON
11:49AM 32.8333 -85.0167 360° North 130 150 7,000 -60 Level Atlanta TRACON
11:50AM 32.8667 -85.0333 337° Northwest 136 157 6,900  Descending Atlanta TRACON
11:51AM 32.9000 -85.0500 337° Northwest 128 147 7,000 -60 Climbing Atlanta TRACON
11:52AM 32.9333 -85.0500 360° North 135 155 6,800  Descending Atlanta TRACON
11:53AM 32.9667 -85.0667 337° Northwest 127 146 7,000  Climbing Atlanta TRACON
11:54AM 33.0167 -85.0667 360° North 137 158 6,900 -60 Descending Atlanta TRACON
11:55AM 33.0500 -85.0833 337° Northwest 133 153 6,900  Level Atlanta TRACON
11:56AM 33.0833 -85.0833 360° North 128 147 6,900  Level Atlanta TRACON
11:57AM 33.1167 -85.1000 337° Northwest 137 158 6,900  Level Atlanta TRACON
11:58AM 33.1500 -85.1000 360° North 130 150 6,900  Level Atlanta TRACON
11:59AM 33.1833 -85.1167 337° Northwest 132 152 6,900  Level Atlanta TRACON
12:00PM 33.2333 -85.1333 344° North 134 154 6,900  Level Atlanta TRACON
12:01PM 33.2667 -85.1167 23° Northeast 135 155 6,900  Level Atlanta TRACON
12:02PM 33.3000 -85.1167 360° North 133 153 6,900  Level Atlanta TRACON
12:03PM 33.3333 -85.1000 23° Northeast 131 151 7,000  Climbing Atlanta TRACON
12:04PM 33.3667 -85.0833 23° Northeast 134 154 7,000 -60 Level Atlanta TRACON
12:05PM 33.4000 -85.0833 360° North 136 157 6,900 -300 Descending Atlanta TRACON
12:06PM 33.4333 -85.0833 360° North 127 146 6,500 -540 Descending Atlanta TRACON
12:07PM 33.4833 -85.0833 360° North 128 147 5,900 -600 Descending Atlanta TRACON
12:08PM 33.5167 -85.0833 360° North 135 155 5,400 -480 Descending Atlanta TRACON
12:09PM 33.5500 -85.0833 360° North 132 152 5,000 -240 Descending Atlanta TRACON
12:10PM 33.5833 -85.0833 360° North 126 145 5,000  Level Atlanta TRACON
12:11PM 33.6167 -85.1000 337° Northwest 126 145 5,000 -60 Level Atlanta TRACON
12:12PM 33.6500 -85.1000 360° North 126 145 4,900  Descending Atlanta TRACON
12:13PM 33.6833 -85.1000 360° North 120 138 5,000 60 Climbing Atlanta TRACON
12:14PM 33.7167 -85.1000 360° North 121 139 5,100 60 Climbing Atlanta TRACON